Time;durP1;ratioP1;P1;durP2;ratioP2;P2;SDS_P1;SDS_P2;PMS_P1;PMS_P2;Temp;Humidity;BMP_temperature;BMP_pressure;BME280_temperature;BME280_humidity;BME280_pressure;Samples;Min_cycle;Max_cycle;Signal;HPM_P1;HPM_P2
2021/01/11 00:09:31;;;;;;;0.97;0.97;;;5.50;99.90;;;;;;20604354;28;20199;-77
2021/01/11 00:19:34;;;;;;;0.87;0.63;;;5.60;99.90;;;;;;20584921;28;20605;-73
2021/01/11 00:29:38;;;;;;;0.80;0.70;;;5.60;99.90;;;;;;20556511;28;20203;-74
2021/01/11 00:39:42;;;;;;;1.13;0.83;;;5.50;99.90;;;;;;20542172;28;20207;-76
2021/01/11 00:49:44;;;;;;;0.20;0.20;;;5.40;99.90;;;;;;20539780;28;20218;-71
2021/01/11 00:59:47;;;;;;;1.03;0.63;;;5.40;99.90;;;;;;20544347;28;20262;-72
2021/01/11 01:09:50;;;;;;;0.80;0.60;;;5.40;99.90;;;;;;20618992;28;20202;-71
2021/01/11 01:19:54;;;;;;;0.37;0.23;;;5.30;99.90;;;;;;20602277;28;20282;-73
2021/01/11 01:29:56;;;;;;;7.10;0.70;;;5.10;99.90;;;;;;20617489;28;20203;-74
2021/01/11 01:40:00;;;;;;;0.20;0.10;;;5.00;99.90;;;;;;20617868;28;20222;-74
2021/01/11 01:50:06;;;;;;;1.30;1.20;;;5.00;99.90;;;;;;20596190;28;20199;-74
2021/01/11 02:00:11;;;;;;;1.53;1.43;;;5.00;99.90;;;;;;20616063;28;20242;-74
2021/01/11 02:10:25;;;;;;;0.20;0.17;;;5.00;99.90;;;;;;20616524;28;20195;-75
2021/01/11 02:20:57;;;;;;;0.30;0.30;;;5.10;99.90;;;;;;20612937;28;20223;-74
2021/01/11 02:31:05;;;;;;;0.50;0.50;;;4.90;99.90;;;;;;20615356;28;20719;-74
2021/01/11 02:41:08;;;;;;;0.70;0.70;;;4.80;99.90;;;;;;20611631;28;20720;-73
2021/01/11 02:51:19;;;;;;;0.37;0.37;;;4.80;99.90;;;;;;20615486;28;20255;-73
2021/01/11 03:01:25;;;;;;;6.60;3.37;;;4.80;99.90;;;;;;20615972;28;20242;-78
2021/01/11 03:11:28;;;;;;;0.93;0.87;;;4.80;99.90;;;;;;20599618;28;20196;-78
2021/01/11 03:21:33;;;;;;;2.67;2.10;;;4.90;99.90;;;;;;20620402;28;20231;-78
2021/01/11 03:31:37;;;;;;;0.50;0.47;;;4.90;99.90;;;;;;20630052;28;20214;-78
2021/01/11 03:41:41;;;;;;;1.90;0.80;;;4.90;99.90;;;;;;20609964;28;20255;-75
2021/01/11 03:51:45;;;;;;;0.30;0.30;;;4.90;99.90;;;;;;20624675;28;20204;-74
2021/01/11 04:01:47;;;;;;;3.43;1.77;;;4.90;99.90;;;;;;20627152;28;20555;-73
2021/01/11 04:11:51;;;;;;;0.87;0.87;;;5.00;99.90;;;;;;20624027;28;20192;-73
2021/01/11 04:21:53;;;;;;;0.40;0.30;;;4.90;99.90;;;;;;20623806;28;20577;-74
2021/01/11 04:31:58;;;;;;;0.20;0.20;;;5.00;99.90;;;;;;20623285;28;20200;-73
2021/01/11 04:42:01;;;;;;;1.80;0.87;;;5.00;99.90;;;;;;20621282;28;20231;-74
2021/01/11 04:52:08;;;;;;;0.97;0.97;;;4.90;99.90;;;;;;20620529;28;20290;-72
2021/01/11 05:02:19;;;;;;;0.30;0.30;;;4.80;99.90;;;;;;20621355;28;20472;-72
2021/01/11 05:12:24;;;;;;;1.50;1.13;;;4.90;99.90;;;;;;20619316;28;20333;-74
2021/01/11 05:22:30;;;;;;;2.83;0.77;;;5.00;99.90;;;;;;20617842;28;20231;-72
2021/01/11 05:32:34;;;;;;;0.87;0.87;;;4.90;99.90;;;;;;20618862;28;20196;-72
2021/01/11 05:42:38;;;;;;;3.60;0.80;;;4.90;99.90;;;;;;20615349;28;20238;-74
2021/01/11 05:52:41;;;;;;;0.80;0.80;;;4.80;99.90;;;;;;20598591;28;20210;-77
2021/01/11 06:02:43;;;;;;;0.57;0.57;;;4.90;99.90;;;;;;20616054;28;20231;-77
2021/01/11 06:12:48;;;;;;;1.80;0.90;;;4.90;99.90;;;;;;20614271;28;20701;-73
2021/01/11 06:23:29;;;;;;;0.27;0.27;;;4.90;99.90;;;;;;20615355;28;20724;-77
2021/01/11 06:33:34;;;;;;;0.80;0.80;;;4.80;99.90;;;;;;20614314;28;20236;-77
2021/01/11 06:43:43;;;;;;;0.20;0.20;;;4.80;99.90;;;;;;20610240;28;20219;-76
2021/01/11 06:53:47;;;;;;;4.60;2.33;;;4.90;99.90;;;;;;20610505;28;20199;-75
2021/01/11 07:03:50;;;;;;;2.27;1.07;;;4.80;99.90;;;;;;20616741;28;20318;-76
2021/01/11 07:13:54;;;;;;;1.20;1.00;;;4.70;99.90;;;;;;20618461;28;20533;-78
2021/01/11 07:23:59;;;;;;;0.20;0.20;;;4.40;99.90;;;;;;20620064;28;20234;-74
2021/01/11 07:34:08;;;;;;;3.00;1.23;;;4.30;99.90;;;;;;20619872;28;20525;-76
2021/01/11 07:44:19;;;;;;;1.00;0.70;;;4.40;99.90;;;;;;20618641;28;20609;-76
2021/01/11 07:54:23;;;;;;;2.37;1.33;;;4.40;99.90;;;;;;20548511;28;20426;-73
2021/01/11 08:04:34;;;;;;;0.97;0.40;;;4.70;99.90;;;;;;20511298;28;840570;-74
2021/01/11 08:14:39;;;;;;;1.30;1.20;;;5.10;99.90;;;;;;20540638;28;20860;-73
2021/01/11 08:24:42;;;;;;;0.97;0.83;;;5.30;99.90;;;;;;20540737;28;20234;-75
2021/01/11 08:34:47;;;;;;;3.00;1.03;;;5.50;99.90;;;;;;20549052;28;20219;-75
2021/01/11 08:44:50;;;;;;;0.80;0.80;;;5.30;99.90;;;;;;20551584;28;20525;-74
2021/01/11 08:54:54;;;;;;;2.30;1.00;;;5.40;99.90;;;;;;20617124;28;20660;-76
2021/01/11 09:04:57;;;;;;;1.03;0.93;;;5.50;99.90;;;;;;20535226;28;20704;-74
2021/01/11 09:15:01;;;;;;;3.57;2.37;;;5.60;99.90;;;;;;20538474;28;20557;-73
2021/01/11 09:25:08;;;;;;;1.03;0.87;;;5.70;99.90;;;;;;20533881;28;20283;-74
2021/01/11 09:35:13;;;;;;;1.83;1.73;;;5.60;99.90;;;;;;20547277;28;20212;-74
2021/01/11 09:45:17;;;;;;;0.20;0.20;;;6.00;99.90;;;;;;20613685;28;20238;-76
2021/01/11 09:55:21;;;;;;;0.60;0.60;;;6.20;99.90;;;;;;20615328;28;20334;-76
2021/01/11 10:05:24;;;;;;;0.67;0.67;;;6.50;99.90;;;;;;20611157;28;20235;-75
2021/01/11 10:15:28;;;;;;;0.50;0.50;;;7.00;99.90;;;;;;20610859;28;20210;-74
2021/01/11 10:25:32;;;;;;;0.70;0.70;;;7.60;99.90;;;;;;20592164;28;20750;-73
2021/01/11 10:35:36;;;;;;;0.40;0.40;;;8.10;99.90;;;;;;20592642;28;20196;-73
2021/01/11 10:45:38;;;;;;;2.70;0.60;;;8.90;99.90;;;;;;20527584;28;20251;-72
2021/01/11 10:55:42;;;;;;;0.43;0.43;;;9.30;99.90;;;;;;20529268;28;20192;-72
2021/01/11 11:05:45;;;;;;;2.73;0.93;;;9.90;99.90;;;;;;20529002;28;20232;-70
2021/01/11 11:15:49;;;;;;;1.27;0.73;;;11.10;99.90;;;;;;20530560;28;20524;-72
2021/01/11 11:25:51;;;;;;;1.40;1.20;;;11.30;99.90;;;;;;20528401;28;20283;-71
2021/01/11 11:35:56;;;;;;;2.00;0.50;;;11.50;99.90;;;;;;20547560;28;20200;-72
2021/01/11 11:45:58;;;;;;;0.70;0.70;;;12.20;99.90;;;;;;20609784;28;20631;-73
2021/01/11 11:56:02;;;;;;;1.27;1.17;;;12.50;99.90;;;;;;20623217;28;20541;-72
2021/01/11 12:06:05;;;;;;;3.73;0.90;;;12.80;99.90;;;;;;20620517;28;20239;-72
2021/01/11 12:16:09;;;;;;;1.33;1.23;;;13.20;99.90;;;;;;20621058;28;20483;-73
2021/01/11 12:26:11;;;;;;;1.43;0.70;;;14.00;99.90;;;;;;20617749;28;20254;-74
2021/01/11 12:36:22;;;;;;;0.40;0.40;;;12.50;99.90;;;;;;20620573;28;20200;-74
2021/01/11 12:46:26;;;;;;;2.10;0.83;;;12.90;99.90;;;;;;20616876;28;20929;-74
2021/01/11 12:56:34;;;;;;;3.10;1.13;;;13.50;99.90;;;;;;20615639;28;20683;-74
2021/01/11 13:06:37;;;;;;;1.93;1.07;;;12.70;99.90;;;;;;20617294;28;20645;-73
2021/01/11 13:16:41;;;;;;;0.27;0.27;;;13.50;99.90;;;;;;20615849;28;20211;-73
2021/01/11 13:26:44;;;;;;;4.83;1.10;;;14.80;99.90;;;;;;20613349;28;20232;-73
2021/01/11 13:36:48;;;;;;;1.13;1.00;;;13.70;99.90;;;;;;20608230;28;20195;-74
2021/01/11 13:46:51;;;;;;;1.57;0.57;;;14.10;99.90;;;;;;20613840;28;20227;-73
2021/01/11 13:56:55;;;;;;;1.13;1.07;;;13.90;99.90;;;;;;20612982;28;20207;-73
2021/01/11 14:06:59;;;;;;;3.97;1.80;;;13.90;99.90;;;;;;20611534;28;20329;-73
2021/01/11 14:17:02;;;;;;;4.17;1.97;;;14.20;99.90;;;;;;20611240;28;20289;-72
2021/01/11 14:27:09;;;;;;;2.33;1.10;;;14.00;99.90;;;;;;20601400;28;20277;-72
2021/01/11 14:37:12;;;;;;;1.40;0.77;;;13.50;99.90;;;;;;20582501;28;20199;-73
2021/01/11 14:47:14;;;;;;;1.50;1.40;;;14.90;99.90;;;;;;20530615;28;20237;-71
2021/01/11 14:57:19;;;;;;;0.90;0.87;;;14.10;99.90;;;;;;20575981;28;20210;-71
2021/01/11 15:07:21;;;;;;;1.90;1.33;;;13.50;99.90;;;;;;20607463;28;20248;-70
2021/01/11 15:17:25;;;;;;;1.17;0.87;;;12.60;99.90;;;;;;20660043;28;20675;-73
2021/01/11 15:27:29;;;;;;;0.30;0.30;;;12.70;99.90;;;;;;20702613;28;20884;-72
2021/01/11 15:37:34;;;;;;;0.93;0.53;;;12.70;99.90;;;;;;20652435;28;20188;-73
2021/01/11 15:47:40;;;;;;;0.53;0.53;;;11.60;99.90;;;;;;20621061;28;20234;-70
2021/01/11 15:57:44;;;;;;;3.30;1.93;;;11.50;99.90;;;;;;20617786;28;20294;-71
2021/01/11 16:07:48;;;;;;;1.57;1.20;;;10.70;99.90;;;;;;20618953;28;20235;-71
2021/01/11 16:17:52;;;;;;;2.60;2.30;;;10.10;99.90;;;;;;20601403;28;20635;-72
2021/01/11 16:27:54;;;;;;;3.93;0.77;;;8.60;99.90;;;;;;20618491;28;20296;-72
2021/01/11 16:38:00;;;;;;;0.43;0.43;;;8.10;99.90;;;;;;20598485;28;20218;-72
2021/01/11 16:48:03;;;;;;;0.77;0.77;;;7.70;99.90;;;;;;20619380;28;20228;-73
2021/01/11 16:58:06;;;;;;;0.60;0.60;;;7.30;99.90;;;;;;20591410;28;20199;-72
2021/01/11 17:08:10;;;;;;;32.23;1.47;;;7.00;99.90;;;;;;20613261;28;20262;-74
2021/01/11 17:18:14;;;;;;;2.20;1.60;;;6.90;99.90;;;;;;20610945;28;20195;-74
2021/01/11 17:28:18;;;;;;;1.63;1.53;;;6.70;99.90;;;;;;20596276;28;20545;-74
2021/01/11 17:38:22;;;;;;;1.43;1.07;;;6.20;99.90;;;;;;20609469;28;20210;-72
2021/01/11 17:48:25;;;;;;;2.40;1.57;;;6.00;99.90;;;;;;20611742;28;20688;-76
2021/01/11 17:58:29;;;;;;;0.77;0.77;;;5.90;99.90;;;;;;20609391;28;20548;-73
2021/01/11 18:08:31;;;;;;;3.73;1.33;;;5.70;99.90;;;;;;20592724;28;20320;-74
2021/01/11 18:18:35;;;;;;;3.30;1.50;;;5.60;99.90;;;;;;20609502;28;20286;-74
2021/01/11 18:28:39;;;;;;;1.53;1.43;;;5.50;99.90;;;;;;20594842;28;20703;-73
2021/01/11 18:38:42;;;;;;;2.27;1.47;;;5.40;99.90;;;;;;20606915;28;20221;-75
2021/01/11 18:48:46;;;;;;;3.10;1.43;;;5.30;99.90;;;;;;20610502;28;20234;-74
2021/01/11 18:58:50;;;;;;;1.63;1.53;;;5.10;99.90;;;;;;20600378;28;20202;-71
2021/01/11 19:08:56;;;;;;;0.70;0.70;;;4.90;99.90;;;;;;20623642;28;20708;-72
2021/01/11 19:19:01;;;;;;;0.97;0.60;;;4.70;99.90;;;;;;20625311;28;20204;-73
2021/01/11 19:29:04;;;;;;;2.20;1.33;;;4.60;99.90;;;;;;20622548;28;20223;-71
2021/01/11 19:39:09;;;;;;;1.23;1.13;;;4.60;99.90;;;;;;20621056;28;20192;-73
2021/01/11 19:49:13;;;;;;;0.50;0.50;;;4.40;99.90;;;;;;20622647;28;20719;-74
2021/01/11 19:59:25;;;;;;;0.67;0.67;;;4.30;99.90;;;;;;20572738;28;20199;-74
2021/01/11 20:09:27;;;;;;;2.47;1.40;;;4.20;99.90;;;;;;20459212;28;20263;-76
2021/01/11 20:19:31;;;;;;;0.93;0.90;;;4.10;99.90;;;;;;20461939;29;20201;-76
2021/01/11 20:29:33;;;;;;;2.83;1.60;;;3.90;99.90;;;;;;20455839;29;20225;-75
2021/01/11 20:39:37;;;;;;;0.63;0.60;;;3.80;99.90;;;;;;20528525;28;20200;-74
2021/01/11 20:49:41;;;;;;;0.67;0.53;;;3.80;99.90;;;;;;20537086;28;20767;-74
2021/01/11 20:59:46;;;;;;;1.03;0.87;;;3.60;99.90;;;;;;20542417;28;20487;-75
2021/01/11 21:09:49;;;;;;;0.80;0.80;;;3.70;99.90;;;;;;20616581;28;20587;-76
2021/01/11 21:19:53;;;;;;;7.17;1.20;;;3.60;99.90;;;;;;20613512;28;20200;-76
2021/01/11 21:29:55;;;;;;;0.93;0.73;;;3.50;99.90;;;;;;20612543;28;20211;-74
2021/01/11 21:39:59;;;;;;;3.83;2.23;;;3.40;99.90;;;;;;20610086;28;20649;-75
2021/01/11 21:50:01;;;;;;;1.30;0.70;;;3.50;99.90;;;;;;20610163;28;20734;-73
2021/01/11 22:00:07;;;;;;;0.83;0.83;;;3.60;99.90;;;;;;20604345;28;21096;-73
2021/01/11 22:10:10;;;;;;;2.87;1.17;;;3.80;99.90;;;;;;20595789;28;20223;-75
2021/01/11 22:20:15;;;;;;;1.03;1.03;;;3.90;99.90;;;;;;20616629;28;20479;-77
2021/01/11 22:30:19;;;;;;;1.13;1.03;;;3.80;99.90;;;;;;20599768;28;20231;-74
2021/01/11 22:40:22;;;;;;;0.27;0.27;;;4.10;99.90;;;;;;20587301;28;20967;-71
2021/01/11 22:50:25;;;;;;;4.23;1.03;;;3.80;99.90;;;;;;20577344;28;20227;-74
2021/01/11 23:00:28;;;;;;;0.37;0.30;;;3.50;99.90;;;;;;20592124;28;20227;-75
2021/01/11 23:10:34;;;;;;;0.70;0.70;;;3.40;99.90;;;;;;20572540;28;20235;-77
2021/01/11 23:20:39;;;;;;;0.67;0.67;;;3.40;99.90;;;;;;20584364;28;20959;-78
2021/01/11 23:30:44;;;;;;;0.77;0.77;;;3.30;99.90;;;;;;20585123;28;20215;-76
2021/01/11 23:40:48;;;;;;;0.70;0.70;;;3.10;99.90;;;;;;20605368;28;20200;-73
2021/01/11 23:50:50;;;;;;;0.63;0.63;;;2.90;99.90;;;;;;20600878;28;20231;-73
